Allensville, Kentucky
Current Conditions -  °F | °C
As of 4:15 PM on Sunday 23 Nov 2014 (Local Time) from KM91 Reporting Station
Overcast Overcast  
Wind Chill: 57°   Ceiling: 2400
Heat Index: 57°   Visibility: 8mi
Dew Point: 57°   Wind: 14mph
Humidity: 100%   Direction: 170°S
Pressure: 29.41"   Gusts: NA
Location:  36.72°N, 87.07°W
Report Text: KM91 232215Z AUTO 17012KT 130V190 8SM SCT012 BKN024 OVC060 14/14 A2941 RMK
Loading
Personal Weather Stations






























Interactive Weather Map New forecast layout! Learn more

10-Day Weather Forecast

Advertisements
Track Severe Weather on mobile